createdAt,value
2023-04-26T00:01:20.799Z,985.3
2023-04-26T00:03:22.244Z,985.3
2023-04-26T00:05:23.742Z,985.3
2023-04-26T00:07:25.704Z,985.3
2023-04-26T00:09:26.958Z,985.4
2023-04-26T00:13:30.448Z,985.4
2023-04-26T00:17:33.153Z,985.4
2023-04-26T00:19:35.175Z,985.6
2023-04-26T00:23:38.941Z,985.5
2023-04-26T00:29:44.255Z,985.4
2023-04-26T00:33:47.203Z,985.4
2023-04-26T00:35:48.853Z,985.4
2023-04-26T00:37:50.058Z,985.4
2023-04-26T00:39:51.211Z,985.4
2023-04-26T00:43:54.134Z,985.4
2023-04-26T00:45:56.078Z,985.4
2023-04-26T00:49:59.105Z,985.4
2023-04-26T00:52:00.361Z,985.5
2023-04-26T00:56:03.887Z,985.3
2023-04-26T01:00:06.688Z,985.5
2023-04-26T01:02:07.981Z,985.4
2023-04-26T01:06:11.906Z,985.5
2023-04-26T01:08:13.400Z,985.4
2023-04-26T01:12:16.938Z,985.4
2023-04-26T01:16:19.873Z,985.4
2023-04-26T01:21:06.922Z,985.5
2023-04-26T01:23:08.498Z,985.4
2023-04-26T01:27:19.976Z,985.4
2023-04-26T01:29:13.138Z,985.4
2023-04-26T01:33:15.799Z,985.4
2023-04-26T01:37:19.246Z,985.4
2023-04-26T01:39:20.680Z,985.5
2023-04-26T01:41:22.105Z,985.5
2023-04-26T01:43:23.285Z,985.5
2023-04-26T01:45:24.964Z,985.4
2023-04-26T01:49:28.156Z,985.5
2023-04-26T01:53:31.092Z,985.4
2023-04-26T01:55:32.970Z,985.5
2023-04-26T01:59:35.947Z,985.5
2023-04-26T02:01:37.510Z,985.4
2023-04-26T02:05:40.469Z,985.5
2023-04-26T02:09:43.366Z,985.4
2023-04-26T02:11:44.627Z,985.4
2023-04-26T02:15:47.803Z,985.5
2023-04-26T02:17:48.867Z,985.4
2023-04-26T02:21:52.827Z,985.5
2023-04-26T02:25:55.629Z,985.5
2023-04-26T02:27:57.470Z,985.5
2023-04-26T02:32:01.172Z,985.5
2023-04-26T02:36:04.331Z,985.6
2023-04-26T02:38:05.702Z,985.5
2023-04-26T02:42:08.933Z,985.5
2023-04-26T02:44:10.836Z,985.6
2023-04-26T02:48:13.540Z,985.7
2023-04-26T02:52:16.658Z,985.7
2023-04-26T02:54:18.698Z,985.6
2023-04-26T02:58:21.804Z,985.6
2023-04-26T03:00:23.237Z,985.6
2023-04-26T03:04:27.088Z,985.7
2023-04-26T03:08:29.512Z,985.7
2023-04-26T03:10:30.960Z,985.5
2023-04-26T03:14:33.772Z,985.6
2023-04-26T03:18:36.276Z,985.6
2023-04-26T03:20:37.416Z,985.6
2023-04-26T03:24:40.459Z,985.6
2023-04-26T03:26:41.784Z,985.6
2023-04-26T03:28:43.758Z,985.6
2023-04-26T03:30:45.610Z,985.7
2023-04-26T03:34:51.760Z,985.8
2023-04-26T03:36:52.645Z,985.7
2023-04-26T03:38:52.774Z,985.7
2023-04-26T03:40:53.754Z,985.7
2023-04-26T03:42:55.628Z,985.7
2023-04-26T03:46:58.634Z,985.7
2023-04-26T03:51:02.169Z,985.6
2023-04-26T03:53:03.939Z,985.7
2023-04-26T03:57:07.929Z,985.8
2023-04-26T04:01:10.656Z,985.8
2023-04-26T04:03:12.373Z,985.8
2023-04-26T04:07:14.236Z,985.9
2023-04-26T04:09:15.641Z,985.9
2023-04-26T04:11:17.270Z,985.8
2023-04-26T04:13:18.891Z,985.8
2023-04-26T04:17:22.178Z,985.8
2023-04-26T04:19:23.921Z,985.7
2023-04-26T04:23:26.475Z,985.7
2023-04-26T04:25:27.808Z,985.8
2023-04-26T04:29:30.806Z,985.8
2023-04-26T04:33:33.974Z,985.8
2023-04-26T04:35:35.275Z,985.8
2023-04-26T04:39:38.129Z,985.8
2023-04-26T04:41:40.071Z,985.9
2023-04-26T04:45:43.435Z,985.9
2023-04-26T04:49:46.946Z,985.8
2023-04-26T04:51:48.223Z,986
2023-04-26T04:55:52.054Z,985.9
2023-04-26T04:59:55.056Z,985.9
2023-04-26T05:01:56.375Z,985.9
2023-04-26T05:05:59.914Z,985.9
2023-04-26T05:08:01.795Z,985.9
2023-04-26T05:12:04.849Z,985.8
2023-04-26T05:16:07.730Z,985.9
2023-04-26T05:18:08.966Z,985.9
2023-04-26T05:22:12.259Z,985.9
2023-04-26T05:24:13.589Z,986
2023-04-26T05:28:16.471Z,985.9
2023-04-26T05:32:20.077Z,986.1
2023-04-26T05:34:21.697Z,986.1
2023-04-26T05:38:24.743Z,986.2
2023-04-26T05:42:27.734Z,986.1
2023-04-26T05:44:29.129Z,986.3
2023-04-26T05:48:32.136Z,986.3
2023-04-26T05:50:33.878Z,986.4
2023-04-26T05:54:36.364Z,986.2
2023-04-26T05:58:39.327Z,986.2
2023-04-26T06:00:40.681Z,986.2
2023-04-26T06:04:44.417Z,986.3
2023-04-26T06:06:45.848Z,986.3
2023-04-26T06:10:48.453Z,986.1
2023-04-26T06:14:51.221Z,986.3
2023-04-26T06:16:52.869Z,986.2
2023-04-26T06:20:56.481Z,986.3
2023-04-26T06:24:59.297Z,986.1
2023-04-26T06:27:00.569Z,986.2
2023-04-26T06:31:04.063Z,986.1
2023-04-26T06:33:05.624Z,986.1
2023-04-26T06:37:08.331Z,986.2
2023-04-26T06:41:10.936Z,986.3
2023-04-26T06:43:12.398Z,986.2
2023-04-26T06:47:15.253Z,986.2
2023-04-26T06:49:16.372Z,986.1
2023-04-26T06:53:21.807Z,986.2
2023-04-26T06:57:22.125Z,986.2
2023-04-26T06:59:23.200Z,986.2
2023-04-26T07:03:26.283Z,986.3
2023-04-26T07:07:28.613Z,986.2
2023-04-26T07:09:29.818Z,986.1
2023-04-26T07:13:32.725Z,986.2
2023-04-26T07:15:34.229Z,986.2
2023-04-26T07:19:36.821Z,986.1
2023-04-26T07:23:38.975Z,986.1
2023-04-26T07:25:40.071Z,986.1
2023-04-26T07:29:43.406Z,986.1
2023-04-26T07:31:44.440Z,986.1
2023-04-26T07:35:47.164Z,986.1
2023-04-26T07:39:49.835Z,986
2023-04-26T07:41:51.439Z,986
2023-04-26T07:45:54.136Z,986
2023-04-26T07:51:59.395Z,986.1
2023-04-26T07:56:02.080Z,986.1
2023-04-26T07:58:03.013Z,986.1
2023-04-26T08:02:05.385Z,986
2023-04-26T08:06:51.616Z,986.1
2023-04-26T08:08:53.008Z,986.1
2023-04-26T08:12:55.350Z,986.1
2023-04-26T08:16:57.649Z,986.1
2023-04-26T08:18:59.433Z,986
2023-04-26T08:23:01.807Z,986.1
2023-04-26T08:25:03.184Z,986.1
2023-04-26T08:29:05.446Z,986.1
2023-04-26T08:33:07.929Z,986.1
2023-04-26T08:35:08.948Z,986.2
2023-04-26T08:39:21.109Z,986.1
2023-04-26T08:43:14.840Z,986.1
2023-04-26T08:45:16.338Z,986.2
2023-04-26T08:49:19.399Z,986.1
2023-04-26T08:51:21.023Z,986.1
2023-04-26T08:55:23.971Z,986.1
2023-04-26T08:59:27.393Z,986.1
2023-04-26T09:01:28.835Z,986.1
2023-04-26T09:05:31.279Z,986.3
2023-04-26T09:07:32.214Z,986.1
2023-04-26T09:11:34.638Z,986.2
2023-04-26T09:15:38.255Z,986.2
2023-04-26T09:17:39.407Z,986.1
2023-04-26T09:21:41.920Z,986
2023-04-26T09:27:46.007Z,986.1
2023-04-26T09:31:49.912Z,986
2023-04-26T09:33:50.654Z,986.1
2023-04-26T09:35:51.790Z,986.1
2023-04-26T09:37:58.659Z,986.1
2023-04-26T09:41:57.059Z,986
2023-04-26T09:43:58.048Z,986
2023-04-26T09:45:58.952Z,986
2023-04-26T09:47:59.984Z,986
2023-04-26T09:50:01.026Z,986
2023-04-26T09:54:03.698Z,986
2023-04-26T09:58:05.725Z,986
2023-04-26T10:00:06.781Z,986.1
2023-04-26T10:04:09.515Z,986.1
2023-04-26T10:06:11.170Z,986.1
2023-04-26T10:10:13.565Z,986.1
2023-04-26T10:14:15.693Z,986
2023-04-26T10:16:16.770Z,986
2023-04-26T10:20:19.186Z,986
2023-04-26T10:24:22.098Z,986
2023-04-26T10:26:23.903Z,985.9
2023-04-26T10:30:26.861Z,985.9
2023-04-26T10:32:28.595Z,986
2023-04-26T10:36:30.764Z,985.9
2023-04-26T10:40:34.056Z,985.9
2023-04-26T10:42:35.711Z,985.9
2023-04-26T10:46:38.800Z,985.8
2023-04-26T10:48:39.981Z,985.8
2023-04-26T10:52:51.932Z,985.7
2023-04-26T10:56:45.757Z,985.7
2023-04-26T10:58:46.829Z,985.6
2023-04-26T11:02:51.204Z,985.6
2023-04-26T11:06:51.261Z,985.6
2023-04-26T11:08:52.625Z,985.6
2023-04-26T11:12:55.527Z,985.6
2023-04-26T11:14:56.629Z,985.6
2023-04-26T11:16:57.772Z,985.7
2023-04-26T11:18:59.485Z,985.5
2023-04-26T11:23:02.248Z,985.5
2023-04-26T11:25:03.389Z,985.5
2023-04-26T11:27:04.758Z,985.5
2023-04-26T11:29:06.063Z,985.5
2023-04-26T11:31:07.245Z,985.4
2023-04-26T11:35:09.875Z,985.4
2023-04-26T11:39:14.131Z,985.3
2023-04-26T11:41:13.461Z,985.4
2023-04-26T11:45:16.825Z,985.3
2023-04-26T11:47:17.981Z,985.4
2023-04-26T11:51:20.951Z,985.4
2023-04-26T11:55:22.991Z,985.3
2023-04-26T11:57:24.176Z,985.2
2023-04-26T12:01:26.954Z,985.3
2023-04-26T12:05:30.585Z,985.2
2023-04-26T12:07:31.327Z,985.3
2023-04-26T12:11:33.919Z,985.3
2023-04-26T12:13:34.835Z,985.3
2023-04-26T12:17:37.813Z,985.2
2023-04-26T12:21:41.152Z,985.1
2023-04-26T12:23:42.077Z,985.1
2023-04-26T12:27:44.930Z,985.1
2023-04-26T12:29:45.837Z,985.2
2023-04-26T12:33:48.790Z,985.1
2023-04-26T12:38:00.988Z,985.1
2023-04-26T12:39:52.999Z,985.1
2023-04-26T12:43:55.238Z,985
2023-04-26T12:47:58.268Z,985
2023-04-26T12:49:59.396Z,985
2023-04-26T12:54:02.157Z,984.9
2023-04-26T12:56:03.094Z,985
2023-04-26T13:00:05.998Z,985
2023-04-26T13:04:08.904Z,985
2023-04-26T13:06:09.939Z,985
2023-04-26T13:10:13.422Z,984.9
2023-04-26T13:12:14.639Z,984.9
2023-04-26T13:16:17.603Z,985
2023-04-26T13:20:19.828Z,985
2023-04-26T13:22:21.538Z,985
2023-04-26T13:26:25.817Z,985
2023-04-26T13:30:26.927Z,984.9
2023-04-26T13:32:28.878Z,984.9
2023-04-26T13:36:31.270Z,984.9
2023-04-26T13:38:33.185Z,984.9
2023-04-26T13:40:33.861Z,984.9
2023-04-26T13:42:34.518Z,985
2023-04-26T13:46:36.900Z,985
2023-04-26T13:48:37.916Z,985
2023-04-26T13:52:40.370Z,984.9
2023-04-26T13:54:41.576Z,984.9
2023-04-26T13:58:45.109Z,985
2023-04-26T14:00:46.657Z,984.9
2023-04-26T14:02:47.835Z,984.8
2023-04-26T14:04:49.847Z,984.9
2023-04-26T14:08:52.461Z,984.9
2023-04-26T14:10:54.097Z,984.8
2023-04-26T14:14:57.453Z,984.8
2023-04-26T14:19:00.123Z,984.8
2023-04-26T14:21:10.794Z,984.7
2023-04-26T14:25:04.530Z,984.8
2023-04-26T14:29:07.110Z,984.7
2023-04-26T14:31:08.586Z,984.7
2023-04-26T14:35:10.562Z,984.7
2023-04-26T14:37:12.211Z,984.6
2023-04-26T14:41:14.400Z,984.6
2023-04-26T14:45:17.669Z,984.7
2023-04-26T14:47:19.553Z,984.8
2023-04-26T14:52:04.513Z,984.7
2023-04-26T14:56:06.718Z,984.7
2023-04-26T14:58:08.659Z,984.7
2023-04-26T15:02:10.188Z,984.6
2023-04-26T15:06:15.033Z,984.5
2023-04-26T15:08:15.031Z,984.5
2023-04-26T15:12:17.992Z,984.5
2023-04-26T15:14:20.139Z,984.6
2023-04-26T15:16:20.981Z,984.6
2023-04-26T15:18:22.112Z,984.6
2023-04-26T15:22:25.152Z,984.4
2023-04-26T15:24:26.585Z,984.5
2023-04-26T15:26:27.793Z,984.6
2023-04-26T15:28:28.812Z,984.6
2023-04-26T15:30:30.195Z,984.6
2023-04-26T15:34:32.837Z,984.6
2023-04-26T15:36:34.496Z,984.6
2023-04-26T15:38:35.414Z,984.6
2023-04-26T15:40:38.202Z,984.5
2023-04-26T15:44:40.212Z,984.5
2023-04-26T15:46:40.906Z,984.5
2023-04-26T15:50:44.110Z,984.5
2023-04-26T15:54:46.858Z,984.5
2023-04-26T15:56:47.867Z,984.5
2023-04-26T16:00:50.316Z,984.4
2023-04-26T16:04:53.713Z,984.3
2023-04-26T16:06:54.548Z,984.4
2023-04-26T16:10:57.776Z,984.4
2023-04-26T16:12:58.832Z,984.4
2023-04-26T16:17:01.098Z,984.3
2023-04-26T16:21:03.739Z,984.3
2023-04-26T16:23:04.888Z,984.2
2023-04-26T16:27:07.499Z,984.3
2023-04-26T16:29:08.769Z,984.2
2023-04-26T16:33:11.439Z,984.2
2023-04-26T16:37:13.349Z,984.2
2023-04-26T16:39:16.025Z,984.2
2023-04-26T16:43:17.582Z,984.2
2023-04-26T16:47:20.074Z,984.2
2023-04-26T16:49:21.034Z,984.2
2023-04-26T16:53:23.660Z,984.2
2023-04-26T16:55:24.790Z,984.1
2023-04-26T16:59:28.038Z,984.2
2023-04-26T17:03:31.267Z,984.2
2023-04-26T17:05:32.574Z,984.2
2023-04-26T17:09:35.964Z,984.3
2023-04-26T17:11:36.029Z,984.3
2023-04-26T17:15:38.468Z,984.5
2023-04-26T17:17:39.735Z,984.5
2023-04-26T17:19:41.524Z,984.5
2023-04-26T17:21:42.707Z,984.5
2023-04-26T17:25:45.842Z,984.5
2023-04-26T17:31:49.860Z,984.6
2023-04-26T17:35:53.271Z,984.7
2023-04-26T17:37:55.050Z,984.7
2023-04-26T17:41:57.937Z,984.6
2023-04-26T17:46:01.519Z,984.7
2023-04-26T17:48:03.338Z,984.7
2023-04-26T17:52:06.289Z,984.7
2023-04-26T17:54:07.431Z,984.7
2023-04-26T17:58:10.454Z,984.8
2023-04-26T18:02:13.418Z,984.8
2023-04-26T18:04:15.227Z,984.8
2023-04-26T18:08:18.039Z,984.8
2023-04-26T18:10:19.512Z,984.9
2023-04-26T18:14:21.822Z,984.9
2023-04-26T18:18:27.219Z,984.8
2023-04-26T18:20:26.720Z,985
2023-04-26T18:24:29.674Z,985
2023-04-26T18:28:32.787Z,985.1
2023-04-26T18:30:34.664Z,985.2
2023-04-26T18:34:37.404Z,985.2
2023-04-26T18:36:38.868Z,985.1
2023-04-26T18:40:41.751Z,985.2
2023-04-26T18:44:44.680Z,985.2
2023-04-26T18:46:46.577Z,985.3
2023-04-26T18:50:49.395Z,985.4
2023-04-26T18:52:50.651Z,985.4
2023-04-26T18:56:53.270Z,985.3
2023-04-26T19:00:55.923Z,985.3
2023-04-26T19:02:57.224Z,985.3
2023-04-26T19:06:59.944Z,985.4
2023-04-26T19:11:03.038Z,985.4
2023-04-26T19:13:04.779Z,985.5
2023-04-26T19:17:07.407Z,985.5
2023-04-26T19:19:08.610Z,985.6
2023-04-26T19:23:11.412Z,985.6
2023-04-26T19:27:13.734Z,985.7
2023-04-26T19:29:15.480Z,985.6
2023-04-26T19:33:18.657Z,985.6
2023-04-26T19:35:20.214Z,985.6
2023-04-26T19:39:23.899Z,985.7
2023-04-26T19:43:26.731Z,985.8
2023-04-26T19:45:28.069Z,985.8
2023-04-26T19:49:31.756Z,985.7
2023-04-26T19:51:33.687Z,985.7
2023-04-26T19:55:36.106Z,985.7
2023-04-26T19:59:38.248Z,985.7
2023-04-26T20:01:39.312Z,985.8
2023-04-26T20:05:42.292Z,985.8
2023-04-26T20:07:43.943Z,985.9
2023-04-26T20:11:46.397Z,985.8
2023-04-26T20:15:48.599Z,985.8
2023-04-26T20:17:49.658Z,985.9
2023-04-26T20:21:52.755Z,985.9
2023-04-26T20:25:55.953Z,986
2023-04-26T20:27:57.441Z,986
2023-04-26T20:32:00.315Z,985.9
2023-04-26T20:34:02.088Z,986
2023-04-26T20:36:03.756Z,985.9
2023-04-26T20:38:05.026Z,985.9
2023-04-26T20:42:08.612Z,985.9
2023-04-26T20:44:10.530Z,986
2023-04-26T20:48:14.133Z,985.9
2023-04-26T20:50:15.966Z,986
2023-04-26T20:54:18.664Z,986
2023-04-26T20:58:21.647Z,986
2023-04-26T21:00:23.529Z,986.1
2023-04-26T21:04:26.123Z,986
2023-04-26T21:10:30.178Z,986
2023-04-26T21:14:33.244Z,986
2023-04-26T21:16:34.712Z,986
2023-04-26T21:18:35.964Z,986.1
2023-04-26T21:20:37.710Z,986
2023-04-26T21:24:40.656Z,986
2023-04-26T21:26:41.821Z,986.2
2023-04-26T21:28:43.786Z,986.1
2023-04-26T21:30:45.177Z,986.1
2023-04-26T21:32:46.583Z,986.1
2023-04-26T21:35:32.222Z,986.2
2023-04-26T21:37:34.249Z,986.2
2023-04-26T21:41:36.718Z,986.2
2023-04-26T21:43:38.165Z,986.2
2023-04-26T21:47:41.028Z,986.2
2023-04-26T21:51:44.567Z,986.1
2023-04-26T21:53:45.709Z,986.3
2023-04-26T21:57:48.715Z,986.2
2023-04-26T22:01:51.686Z,986.3
2023-04-26T22:03:52.828Z,986.3
2023-04-26T22:07:56.676Z,986.3
2023-04-26T22:09:58.376Z,986.3
2023-04-26T22:14:00.646Z,986.3
2023-04-26T22:18:03.440Z,986.3
2023-04-26T22:20:04.606Z,986.3
2023-04-26T22:24:07.547Z,986.4
2023-04-26T22:26:08.647Z,986.4
2023-04-26T22:30:20.791Z,986.5
2023-04-26T22:34:14.431Z,986.4
2023-04-26T22:36:16.377Z,986.4
2023-04-26T22:40:19.186Z,986.4
2023-04-26T22:44:22.355Z,986.4
2023-04-26T22:46:24.217Z,986.5
2023-04-26T22:50:27.371Z,986.4
2023-04-26T22:52:31.732Z,986.5
2023-04-26T22:56:31.934Z,986.5
2023-04-26T23:00:34.593Z,986.6
2023-04-26T23:02:36.053Z,986.5
2023-04-26T23:06:39.372Z,986.6
2023-04-26T23:08:40.891Z,986.6
2023-04-26T23:12:43.870Z,986.8
2023-04-26T23:16:47.624Z,986.7
2023-04-26T23:18:48.748Z,986.6
2023-04-26T23:22:51.856Z,986.6
2023-04-26T23:26:55.521Z,986.6
2023-04-26T23:28:57.514Z,986.8
2023-04-26T23:33:00.514Z,986.8
2023-04-26T23:35:01.925Z,986.8
2023-04-26T23:39:05.825Z,986.7
2023-04-26T23:43:08.981Z,986.6
2023-04-26T23:45:10.102Z,986.7
2023-04-26T23:49:13.130Z,986.7
2023-04-26T23:51:14.287Z,986.6
2023-04-26T23:55:16.857Z,986.6
2023-04-26T23:59:20.160Z,986.6
